Marella Discovery — 9HA4324 — position and weather

sailwx.info

Track history (hours):
 
Tides and Currents Weather Stations Pressure Air Temp Water Temp Dewpoint Dewpoint Depression Visibility Wind Speed Wind Dir Waves Ship Positions

Marella Discovery

Last reported at 2018-Feb-17 02:10 UTC. Time now 2018-Feb-23 10:40 UTC.
Position N 16°13' W 062°04'.

Length 264 m; draft 8 m.

Type: Passenger vessel. MMSI: 249639000.

Date/timePositionNaut miles runAvg speedWind from/ knotsBaromVisibWave heightAir tempDewpointWater temp
2018-Feb-17 02:10N 16°13' W 062°04'422.1
2018-Feb-17 02:00N 16°17' W 062°04'1122.0
2018-Feb-17 01:31N 16°28' W 062°04'1122.1
2018-Feb-17 01:01N 16°39' W 062°03'1121.7
2018-Feb-17 00:30N 16°50' W 062°03'1121.3
2018-Feb-17 00:00N 17°00' W 062°05'815.1
2018-Feb-16 23:30N 17°08' W 062°05'611.4
2018-Feb-16 23:00N 17°11' W 062°00'612.1
2018-Feb-16 22:30N 17°09' W 061°54'3 6.6
2018-Feb-16 22:00N 17°07' W 061°51'0 0.2
2018-Feb-16 21:29N 17°07' W 061°51'0 0.0
2018-Feb-16 20:59N 17°07' W 061°51'0 0.0
2018-Feb-16 20:26N 17°07' W 061°51'0 0.0
2018-Feb-16 19:59N 17°07' W 061°51'0 0.0
2018-Feb-16 19:29N 17°07' W 061°51'0 0.0
2018-Feb-16 18:59N 17°07' W 061°51'0 0.0
2018-Feb-16 18:29N 17°07' W 061°51'0 0.0
2018-Feb-16 17:59N 17°07' W 061°51'0 0.0
2018-Feb-16 17:29N 17°07' W 061°51'0 0.0
2018-Feb-16 16:59N 17°07' W 061°51'0 0.0
2018-Feb-16 16:23N 17°07' W 061°51'0 0.0
2018-Feb-16 15:59N 17°07' W 061°51'0 0.0
2018-Feb-16 15:26N 17°07' W 061°51'0 0.0
2018-Feb-16 14:59N 17°07' W 061°51'0 0.0
2018-Feb-16 14:29N 17°07' W 061°51'0 0.0
2018-Feb-16 13:59N 17°07' W 061°51'0 0.0
2018-Feb-16 13:29N 17°07' W 061°51'0 0.0
2018-Feb-16 12:59N 17°07' W 061°51'0 0.0
2018-Feb-16 12:29N 17°07' W 061°51'0 0.0
2018-Feb-16 11:59N 17°07' W 061°51'0 0.1
2018-Feb-16 11:30N 17°07' W 061°51'3 5.3
2018-Feb-16 11:00N 17°08' W 061°53'611.0
2018-Feb-16 10:30N 17°10' W 061°59'611.6
2018-Feb-16 10:00N 17°09' W 062°05'611.8
2018-Feb-16 09:30N 17°09' W 062°11'611.8
2018-Feb-16 08:59N 17°07' W 062°17'611.3
2018-Feb-16 08:28N 17°04' W 062°23'511.5
2018-Feb-16 08:00N 17°02' W 062°27'711.7
2018-Feb-16 07:22N 16°59' W 062°35'411.5
2018-Feb-16 07:00N 16°57' W 062°39'20 9.4
2018-Feb-16 04:53N 17°11' W 062°53'6 9.9
2018-Feb-16 04:17N 17°16' W 062°57'310.6
2018-Feb-16 03:58N 17°19' W 062°55'3 1.2
2018-Feb-16 01:33N 17°17' W 062°53'5 2.0
2018-Feb-15 23:04N 17°14' W 062°49'211.2
2018-Feb-15 22:53N 17°15' W 062°46'3 0.3
2018-Feb-15 11:09N 17°17' W 062°43'1 5.3
2018-Feb-15 10:59N 17°16' W 062°44'1110.3
2018-Feb-15 09:58N 17°16' W 062°55'1710.0
2018-Feb-15 08:19N 17°29' W 063°06'411.2
2018-Feb-15 07:57N 17°33' W 063°07'611.6
2018-Feb-15 07:27N 17°39' W 063°08'711.9
2018-Feb-15 06:54N 17°44' W 063°11'711.4
2018-Feb-15 06:20N 17°47' W 063°18'411.4
2018-Feb-15 06:00N 17°49' W 063°21'611.6
2018-Feb-15 05:29N 17°51' W 063°27'611.6
2018-Feb-15 05:00N 17°53' W 063°32'711.7
2018-Feb-15 04:27N 17°56' W 063°39'611.8
2018-Feb-15 03:58N 17°58' W 063°44'8 0.3
2018-Feb-14 05:51N 18°02' W 063°38'411.3
2018-Feb-14 05:30N 18°01' W 063°34'711.2
2018-Feb-14 04:53N 17°59' W 063°27'511.0
2018-Feb-14 04:25N 17°59' W 063°21'511.3
2018-Feb-14 03:56N 18°02' W 063°17'510.9
2018-Feb-14 03:28N 18°02' W 063°12'5 7.8
2018-Feb-14 02:52N 17°57' W 063°12'4 9.8
2018-Feb-14 02:30N 17°60' W 063°14'5 7.8
2018-Feb-14 01:54N 17°57' W 063°10'4 9.9
2018-Feb-14 01:28N 17°55' W 063°13'4 8.9
2018-Feb-14 00:59N 17°56' W 063°18'7 9.0
2018-Feb-14 00:11N 18°02' W 063°14'211.5
2018-Feb-13 23:59N 18°01' W 063°11'711.5
2018-Feb-13 23:23N 17°60' W 063°04'1 2.2
2018-Feb-13 22:43N 18°01' W 063°03'0 0.0
2018-Feb-13 22:28N 18°01' W 063°03'0 0.0
2018-Feb-13 21:58N 18°01' W 063°03'0 0.0
2018-Feb-13 21:19N 18°01' W 063°03'0 0.0
2018-Feb-13 20:58N 18°01' W 063°03'0 0.0
2018-Feb-13 20:28N 18°01' W 063°03'0 0.0
2018-Feb-13 19:46N 18°01' W 063°03'0 0.0
2018-Feb-13 19:19N 18°01' W 063°03'0 0.0
2018-Feb-13 18:49N 18°01' W 063°03'0 0.0
2018-Feb-13 18:22N 18°01' W 063°03'0 0.0
2018-Feb-13 17:52N 18°01' W 063°03'0 0.0
2018-Feb-13 17:22N 18°01' W 063°03'0 0.0
2018-Feb-13 16:52N 18°01' W 063°03'0 0.0
2018-Feb-13 16:19N 18°01' W 063°03'0 0.0
2018-Feb-13 15:52N 18°01' W 063°03'0 0.0
2018-Feb-13 15:25N 18°01' W 063°03'0 0.0
2018-Feb-13 14:40N 18°01' W 063°03'0 0.0
2018-Feb-13 14:25N 18°01' W 063°03'0 0.0
2018-Feb-13 13:55N 18°01' W 063°03'0 0.2
2018-Feb-13 12:13N 18°00' W 063°03'1 2.5
2018-Feb-13 11:58N 18°00' W 063°04'4 7.2
2018-Feb-13 11:25N 17°59' W 063°07'4 9.6
2018-Feb-13 10:59N 17°55' W 063°10'612.0
2018-Feb-13 10:29N 17°49' W 063°09'713.3
2018-Feb-13 09:59N 17°43' W 063°08'613.3
2018-Feb-13 09:30N 17°36' W 063°08'1213.6
2018-Feb-13 08:38N 17°25' W 063°05'214.2
2018-Feb-13 08:29N 17°23' W 063°04'813.9
2018-Feb-13 07:56N 17°17' W 062°59'2014.6
2018-Feb-13 06:33N 17°03' W 062°44'315.0
2018-Feb-13 06:19N 17°00' W 062°41'515.2
2018-Feb-13 06:00N 16°57' W 062°38'714.8
2018-Feb-13 05:30N 16°51' W 062°33'715.2
2018-Feb-13 05:01N 16°44' W 062°31'714.7
2018-Feb-13 04:30N 16°38' W 062°26'714.7
2018-Feb-13 04:00N 16°32' W 062°21'714.6
2018-Feb-13 03:31N 16°26' W 062°17'714.7
2018-Feb-13 03:00N 16°20' W 062°12'714.6
2018-Feb-13 02:30N 16°15' W 062°07'612.9
2018-Feb-13 02:00N 16°11' W 062°02'5 7.5
2018-Feb-13 01:24N 16°06' W 062°03'3 0.9
2018-Feb-12 21:49N 16°09' W 062°04'3 9.5
2018-Feb-12 21:29N 16°07' W 062°02'611.0
2018-Feb-12 20:57N 16°01' W 061°60'2311.2
2018-Feb-12 18:55N 15°41' W 061°49'511.8
2018-Feb-12 18:29N 15°37' W 061°46'611.6
2018-Feb-12 17:58N 15°32' W 061°43'611.3
2018-Feb-12 17:27N 15°27' W 061°39'511.0
2018-Feb-12 17:00N 15°23' W 061°36'5211.3
2018-Feb-12 12:26N 14°33' W 061°22'6310.8
2018-Feb-12 06:37N 13°35' W 060°56'  
2018-Feb-09 23:50N 14°27' W 061°19'513.5
2018-Feb-09 23:29N 14°32' W 061°19'612.8
2018-Feb-09 22:59N 14°37' W 061°15'813.6
2018-Feb-09 22:23N 14°36' W 061°07'10 0.8
2018-Feb-09 10:01N 14°35' W 061°16'11 5.4
2018-Feb-09 08:01N 14°31' W 061°27'3 0.6
2018-Feb-09 03:00N 14°32' W 061°30'111 4.5
2018-Feb-08 02:01N 16°18' W 062°06'1019.3
2018-Feb-08 01:31N 16°27' W 062°05'1019.2
2018-Feb-08 01:01N 16°37' W 062°04'1019.7
2018-Feb-08 00:31N 16°47' W 062°03'1019.3
2018-Feb-08 00:01N 16°56' W 062°03'917.2
2018-Feb-07 23:30N 17°05' W 062°03'611.1
2018-Feb-07 23:00N 17°10' W 061°60'612.1
2018-Feb-07 22:30N 17°08' W 061°53'3 5.3
2018-Feb-07 22:00N 17°07' W 061°51'0 0.1
2018-Feb-07 21:30N 17°07' W 061°51'12 1.0
2018-Feb-07 09:30N 16°59' W 062°00'714.4
2018-Feb-07 09:00N 16°52' W 062°01'714.8
2018-Feb-07 08:30N 16°44' W 062°01'714.7
2018-Feb-07 08:00N 16°37' W 062°02'714.8
2018-Feb-07 07:30N 16°30' W 062°03'815.1
2018-Feb-07 07:00N 16°22' W 062°03'612.8
2018-Feb-07 06:30N 16°16' W 062°04'1211.7
2018-Feb-07 05:30N 16°04' W 062°06'20 6.1
2018-Feb-07 02:11N 15°52' W 061°49'  
Track history (hours):
 
Tides and Currents Weather Stations Pressure Air Temp Water Temp Dewpoint Dewpoint Depression Visibility Wind Speed Wind Dir Waves Ship Positions

Marella Discovery

Last reported at 2018-Feb-17 02:10 UTC. Time now 2018-Feb-23 10:40 UTC.
Position N 16°13' W 062°04'.

Length 264 m; draft 8 m.

Type: Passenger vessel. MMSI: 249639000.

Date/timePositionNaut miles runAvg speedWind from/ knotsBaromVisibWave heightAir tempDewpointWater temp
2018-Feb-17 02:10N 16°13' W 062°04'422.1
2018-Feb-17 02:00N 16°17' W 062°04'1122.0
2018-Feb-17 01:31N 16°28' W 062°04'1122.1
2018-Feb-17 01:01N 16°39' W 062°03'1121.7
2018-Feb-17 00:30N 16°50' W 062°03'1121.3
2018-Feb-17 00:00N 17°00' W 062°05'815.1
2018-Feb-16 23:30N 17°08' W 062°05'611.4
2018-Feb-16 23:00N 17°11' W 062°00'612.1
2018-Feb-16 22:30N 17°09' W 061°54'3 6.6
2018-Feb-16 22:00N 17°07' W 061°51'0 0.2
2018-Feb-16 21:29N 17°07' W 061°51'0 0.0
2018-Feb-16 20:59N 17°07' W 061°51'0 0.0
2018-Feb-16 20:26N 17°07' W 061°51'0 0.0
2018-Feb-16 19:59N 17°07' W 061°51'0 0.0
2018-Feb-16 19:29N 17°07' W 061°51'0 0.0
2018-Feb-16 18:59N 17°07' W 061°51'0 0.0
2018-Feb-16 18:29N 17°07' W 061°51'0 0.0
2018-Feb-16 17:59N 17°07' W 061°51'0 0.0
2018-Feb-16 17:29N 17°07' W 061°51'0 0.0
2018-Feb-16 16:59N 17°07' W 061°51'0 0.0
2018-Feb-16 16:23N 17°07' W 061°51'0 0.0
2018-Feb-16 15:59N 17°07' W 061°51'0 0.0
2018-Feb-16 15:26N 17°07' W 061°51'0 0.0
2018-Feb-16 14:59N 17°07' W 061°51'0 0.0
2018-Feb-16 14:29N 17°07' W 061°51'0 0.0
2018-Feb-16 13:59N 17°07' W 061°51'0 0.0
2018-Feb-16 13:29N 17°07' W 061°51'0 0.0
2018-Feb-16 12:59N 17°07' W 061°51'0 0.0
2018-Feb-16 12:29N 17°07' W 061°51'0 0.0
2018-Feb-16 11:59N 17°07' W 061°51'0 0.1
2018-Feb-16 11:30N 17°07' W 061°51'3 5.3
2018-Feb-16 11:00N 17°08' W 061°53'611.0
2018-Feb-16 10:30N 17°10' W 061°59'611.6
2018-Feb-16 10:00N 17°09' W 062°05'611.8
2018-Feb-16 09:30N 17°09' W 062°11'611.8
2018-Feb-16 08:59N 17°07' W 062°17'611.3
2018-Feb-16 08:28N 17°04' W 062°23'511.5
2018-Feb-16 08:00N 17°02' W 062°27'711.7
2018-Feb-16 07:22N 16°59' W 062°35'411.5
2018-Feb-16 07:00N 16°57' W 062°39'20 9.4
2018-Feb-16 04:53N 17°11' W 062°53'6 9.9
2018-Feb-16 04:17N 17°16' W 062°57'310.6
2018-Feb-16 03:58N 17°19' W 062°55'3 1.2
2018-Feb-16 01:33N 17°17' W 062°53'5 2.0
2018-Feb-15 23:04N 17°14' W 062°49'211.2
2018-Feb-15 22:53N 17°15' W 062°46'3 0.3
2018-Feb-15 11:09N 17°17' W 062°43'1 5.3
2018-Feb-15 10:59N 17°16' W 062°44'1110.3
2018-Feb-15 09:58N 17°16' W 062°55'1710.0
2018-Feb-15 08:19N 17°29' W 063°06'411.2
2018-Feb-15 07:57N 17°33' W 063°07'611.6
2018-Feb-15 07:27N 17°39' W 063°08'711.9
2018-Feb-15 06:54N 17°44' W 063°11'711.4
2018-Feb-15 06:20N 17°47' W 063°18'411.4
2018-Feb-15 06:00N 17°49' W 063°21'611.6
2018-Feb-15 05:29N 17°51' W 063°27'611.6
2018-Feb-15 05:00N 17°53' W 063°32'711.7
2018-Feb-15 04:27N 17°56' W 063°39'611.8
2018-Feb-15 03:58N 17°58' W 063°44'8 0.3
2018-Feb-14 05:51N 18°02' W 063°38'411.3
2018-Feb-14 05:30N 18°01' W 063°34'711.2
2018-Feb-14 04:53N 17°59' W 063°27'511.0
2018-Feb-14 04:25N 17°59' W 063°21'511.3
2018-Feb-14 03:56N 18°02' W 063°17'510.9
2018-Feb-14 03:28N 18°02' W 063°12'5 7.8
2018-Feb-14 02:52N 17°57' W 063°12'4 9.8
2018-Feb-14 02:30N 17°60' W 063°14'5 7.8
2018-Feb-14 01:54N 17°57' W 063°10'4 9.9
2018-Feb-14 01:28N 17°55' W 063°13'4 8.9
2018-Feb-14 00:59N 17°56' W 063°18'7 9.0
2018-Feb-14 00:11N 18°02' W 063°14'211.5
2018-Feb-13 23:59N 18°01' W 063°11'711.5
2018-Feb-13 23:23N 17°60' W 063°04'1 2.2
2018-Feb-13 22:43N 18°01' W 063°03'0 0.0
2018-Feb-13 22:28N 18°01' W 063°03'0 0.0
2018-Feb-13 21:58N 18°01' W 063°03'0 0.0
2018-Feb-13 21:19N 18°01' W 063°03'0 0.0
2018-Feb-13 20:58N 18°01' W 063°03'0 0.0
2018-Feb-13 20:28N 18°01' W 063°03'0 0.0
2018-Feb-13 19:46N 18°01' W 063°03'0 0.0
2018-Feb-13 19:19N 18°01' W 063°03'0 0.0
2018-Feb-13 18:49N 18°01' W 063°03'0 0.0
2018-Feb-13 18:22N 18°01' W 063°03'0 0.0
2018-Feb-13 17:52N 18°01' W 063°03'0 0.0
2018-Feb-13 17:22N 18°01' W 063°03'0 0.0
2018-Feb-13 16:52N 18°01' W 063°03'0 0.0
2018-Feb-13 16:19N 18°01' W 063°03'0 0.0
2018-Feb-13 15:52N 18°01' W 063°03'0 0.0
2018-Feb-13 15:25N 18°01' W 063°03'0 0.0
2018-Feb-13 14:40N 18°01' W 063°03'0 0.0
2018-Feb-13 14:25N 18°01' W 063°03'0 0.0
2018-Feb-13 13:55N 18°01' W 063°03'0 0.2
2018-Feb-13 12:13N 18°00' W 063°03'1 2.5
2018-Feb-13 11:58N 18°00' W 063°04'4 7.2
2018-Feb-13 11:25N 17°59' W 063°07'4 9.6
2018-Feb-13 10:59N 17°55' W 063°10'612.0
2018-Feb-13 10:29N 17°49' W 063°09'713.3
2018-Feb-13 09:59N 17°43' W 063°08'613.3
2018-Feb-13 09:30N 17°36' W 063°08'1213.6
2018-Feb-13 08:38N 17°25' W 063°05'214.2
2018-Feb-13 08:29N 17°23' W 063°04'813.9
2018-Feb-13 07:56N 17°17' W 062°59'2014.6
2018-Feb-13 06:33N 17°03' W 062°44'315.0
2018-Feb-13 06:19N 17°00' W 062°41'515.2
2018-Feb-13 06:00N 16°57' W 062°38'714.8
2018-Feb-13 05:30N 16°51' W 062°33'715.2
2018-Feb-13 05:01N 16°44' W 062°31'714.7
2018-Feb-13 04:30N 16°38' W 062°26'714.7
2018-Feb-13 04:00N 16°32' W 062°21'714.6
2018-Feb-13 03:31N 16°26' W 062°17'714.7
2018-Feb-13 03:00N 16°20' W 062°12'714.6
2018-Feb-13 02:30N 16°15' W 062°07'612.9
2018-Feb-13 02:00N 16°11' W 062°02'5 7.5
2018-Feb-13 01:24N 16°06' W 062°03'3 0.9
2018-Feb-12 21:49N 16°09' W 062°04'3 9.5
2018-Feb-12 21:29N 16°07' W 062°02'611.0
2018-Feb-12 20:57N 16°01' W 061°60'2311.2
2018-Feb-12 18:55N 15°41' W 061°49'511.8
2018-Feb-12 18:29N 15°37' W 061°46'611.6
2018-Feb-12 17:58N 15°32' W 061°43'611.3
2018-Feb-12 17:27N 15°27' W 061°39'511.0
2018-Feb-12 17:00N 15°23' W 061°36'5211.3
2018-Feb-12 12:26N 14°33' W 061°22'6310.8
2018-Feb-12 06:37N 13°35' W 060°56'  
2018-Feb-09 23:50N 14°27' W 061°19'513.5
2018-Feb-09 23:29N 14°32' W 061°19'612.8
2018-Feb-09 22:59N 14°37' W 061°15'813.6
2018-Feb-09 22:23N 14°36' W 061°07'10 0.8
2018-Feb-09 10:01N 14°35' W 061°16'11 5.4
2018-Feb-09 08:01N 14°31' W 061°27'3 0.6
2018-Feb-09 03:00N 14°32' W 061°30'111 4.5
2018-Feb-08 02:01N 16°18' W 062°06'1019.3
2018-Feb-08 01:31N 16°27' W 062°05'1019.2
2018-Feb-08 01:01N 16°37' W 062°04'1019.7
2018-Feb-08 00:31N 16°47' W 062°03'1019.3
2018-Feb-08 00:01N 16°56' W 062°03'917.2
2018-Feb-07 23:30N 17°05' W 062°03'611.1
2018-Feb-07 23:00N 17°10' W 061°60'612.1
2018-Feb-07 22:30N 17°08' W 061°53'3 5.3
2018-Feb-07 22:00N 17°07' W 061°51'0 0.1
2018-Feb-07 21:30N 17°07' W 061°51'12 1.0
2018-Feb-07 09:30N 16°59' W 062°00'714.4
2018-Feb-07 09:00N 16°52' W 062°01'714.8
2018-Feb-07 08:30N 16°44' W 062°01'714.7
2018-Feb-07 08:00N 16°37' W 062°02'714.8
2018-Feb-07 07:30N 16°30' W 062°03'815.1
2018-Feb-07 07:00N 16°22' W 062°03'612.8
2018-Feb-07 06:30N 16°16' W 062°04'1211.7
2018-Feb-07 05:30N 16°04' W 062°06'20 6.1
2018-Feb-07 02:11N 15°52' W 061°49'  

Dump ship's entire track history